Time;durP1;ratioP1;P1;durP2;ratioP2;P2;SDS_P1;SDS_P2;PMS_P1;PMS_P2;Temp;Humidity;BMP_temperature;BMP_pressure;BME280_temperature;BME280_humidity;BME280_pressure;Samples;Min_cycle;Max_cycle;Signal;HPM_P1;HPM_P2
2020/12/12 00:00:19;;;;;;;152.35;63.30;;;;;;;-1.31;76.20;95970.08;1759186;79;26398;-92
2020/12/12 00:02:50;;;;;;;154.55;60.17;;;;;;;-1.33;76.15;95972.59;1781720;79;25782;-88
2020/12/12 00:05:18;;;;;;;145.00;60.45;;;;;;;-1.36;76.11;95966.31;1761919;79;27574;-87
2020/12/12 00:07:45;;;;;;;138.50;59.60;;;;;;;-1.42;75.99;95965.17;1775581;79;26206;-89
2020/12/12 00:10:12;;;;;;;155.87;63.30;;;;;;;-1.47;75.96;95967.53;1781077;79;26331;-93
2020/12/12 00:12:41;;;;;;;168.50;64.65;;;;;;;-1.52;76.00;95973.81;1769503;79;25617;-89
2020/12/12 00:15:08;;;;;;;159.07;66.20;;;;;;;-1.55;76.07;95980.27;1780041;79;25340;-89
2020/12/12 00:17:35;;;;;;;165.10;66.90;;;;;;;-1.58;76.03;95975.84;1788194;79;27536;-90
2020/12/12 00:20:03;;;;;;;162.00;65.50;;;;;;;-1.61;75.94;95977.00;1782799;79;25790;-89
2020/12/12 00:22:31;;;;;;;157.25;63.15;;;;;;;-1.66;75.91;95973.20;1772149;79;25808;-88
2020/12/12 00:24:58;;;;;;;143.40;57.62;;;;;;;-1.69;76.02;95972.24;1775675;79;25770;-88
2020/12/12 00:27:25;;;;;;;137.47;57.73;;;;;;;-1.71;76.12;95971.09;1769929;79;25842;-88
2020/12/12 00:29:52;;;;;;;136.30;58.17;;;;;;;-1.71;76.12;95980.34;1767951;79;27550;-88
2020/12/12 00:32:20;;;;;;;150.57;56.30;;;;;;;-1.73;76.07;95981.01;1775241;79;25795;-93
2020/12/12 00:34:47;;;;;;;134.27;56.25;;;;;;;-1.77;76.01;95983.66;1762556;79;25615;-87
2020/12/12 00:37:18;;;;;;;151.37;57.45;;;;;;;-1.80;75.92;95976.05;1766813;79;26402;-90
2020/12/12 00:39:44;;;;;;;147.30;58.85;;;;;;;-1.85;75.93;95976.58;1770567;79;25879;-88
2020/12/12 00:42:11;;;;;;;144.85;55.95;;;;;;;-1.88;75.90;95979.55;1762664;79;28524;-90
2020/12/12 00:44:39;;;;;;;143.37;59.25;;;;;;;-1.89;75.96;95975.26;1764480;79;25816;-93
2020/12/12 00:47:07;;;;;;;131.60;53.92;;;;;;;-1.87;75.95;95980.38;1785138;79;25825;-88
2020/12/12 00:49:34;;;;;;;139.62;58.92;;;;;;;-1.88;75.90;95980.88;1790282;79;25791;-89
2020/12/12 00:52:01;;;;;;;156.00;66.67;;;;;;;-1.91;75.83;95979.06;1781378;79;25797;-88
2020/12/12 00:54:29;;;;;;;196.53;75.32;;;;;;;-1.92;75.79;95976.08;1793556;79;27555;-88
2020/12/12 00:56:57;;;;;;;190.30;75.20;;;;;;;-1.99;75.58;95974.63;1786971;79;26049;-89
2020/12/12 00:59:24;;;;;;;172.85;69.75;;;;;;;-2.05;75.56;95979.25;1764852;79;26162;-87
2020/12/12 01:01:52;;;;;;;171.15;69.97;;;;;;;-2.07;75.51;95972.50;1771457;79;25651;-88
2020/12/12 01:04:19;;;;;;;164.77;69.10;;;;;;;-2.12;75.46;95982.25;1767479;79;25731;-92
2020/12/12 01:06:47;;;;;;;164.43;68.30;;;;;;;-2.15;75.47;95983.07;1781899;78;28705;-87
2020/12/12 01:09:15;;;;;;;166.50;68.57;;;;;;;-2.18;75.47;95977.65;1783053;79;25897;-90
2020/12/12 01:11:42;;;;;;;174.57;72.62;;;;;;;-2.21;75.48;95972.69;1773909;79;25793;-87
2020/12/12 01:14:09;;;;;;;176.45;70.75;;;;;;;-2.23;75.52;95968.05;1769427;79;26482;-89
2020/12/12 01:16:37;;;;;;;186.22;76.85;;;;;;;-2.25;75.31;95967.39;1766442;79;25787;-87
2020/12/12 01:19:04;;;;;;;188.65;74.58;;;;;;;-2.31;75.15;95967.58;1784951;79;27504;-92
2020/12/12 01:21:31;;;;;;;164.90;68.72;;;;;;;-2.35;75.09;95965.42;1778106;79;26102;-92
2020/12/12 01:23:59;;;;;;;153.57;61.45;;;;;;;-2.41;75.05;95959.47;1778139;79;25791;-90
2020/12/12 01:26:26;;;;;;;141.03;59.93;;;;;;;-2.50;74.91;95965.27;1765397;79;25873;-87
2020/12/12 01:28:54;;;;;;;129.90;58.42;;;;;;;-2.52;75.00;95970.38;1759467;80;26073;-87
2020/12/12 01:31:21;;;;;;;133.37;56.00;;;;;;;-2.56;75.03;95964.13;1763052;79;27513;-87
2020/12/12 01:33:48;;;;;;;134.15;57.78;;;;;;;-2.58;74.99;95954.22;1784687;79;26223;-86
2020/12/12 01:36:16;;;;;;;128.25;57.45;;;;;;;-2.59;75.08;95956.52;1786999;79;25824;-88
2020/12/12 01:38:43;;;;;;;140.18;56.75;;;;;;;-2.60;75.09;95956.19;1767553;79;25885;-87
2020/12/12 01:41:11;;;;;;;131.93;56.80;;;;;;;-2.59;75.10;95955.70;1764870;79;25870;-86
2020/12/12 01:43:39;;;;;;;126.97;54.35;;;;;;;-2.61;75.05;95955.86;1771287;79;27499;-86
2020/12/12 01:46:06;;;;;;;123.33;54.85;;;;;;;-2.61;75.05;95949.75;1780534;79;25714;-87
2020/12/12 01:48:34;;;;;;;125.53;56.10;;;;;;;-2.66;74.91;95956.87;1765009;79;25816;-87
2020/12/12 01:51:01;;;;;;;137.03;58.65;;;;;;;-2.69;74.87;95954.55;1778093;79;25851;-86
2020/12/12 01:53:29;;;;;;;129.65;58.15;;;;;;;-2.72;74.87;95954.05;1774018;79;25716;-86
2020/12/12 01:55:56;;;;;;;130.35;58.00;;;;;;;-2.73;74.95;95962.46;1769055;79;27566;-86
2020/12/12 01:58:23;;;;;;;132.07;60.12;;;;;;;-2.77;74.98;95957.16;1764353;79;25788;-88
2020/12/12 02:00:51;;;;;;;140.22;57.30;;;;;;;-2.78;75.02;95944.16;1783587;79;25340;-86
2020/12/12 02:03:21;;;;;;;134.87;57.88;;;;;;;-2.81;75.00;95943.98;1775495;79;25819;-85
2020/12/12 02:05:51;;;;;;;135.95;59.27;;;;;;;-2.85;74.72;95943.97;1751432;80;25845;-86
2020/12/12 02:08:20;;;;;;;133.07;58.38;;;;;;;-2.95;74.45;95943.30;1749869;80;27627;-86
2020/12/12 02:10:50;;;;;;;138.05;58.20;;;;;;;-3.11;74.51;95945.42;1749924;80;25692;-85
2020/12/12 02:13:19;;;;;;;132.22;57.73;;;;;;;-3.10;74.81;95943.61;1749906;80;25794;-86
2020/12/12 02:15:47;;;;;;;125.97;56.58;;;;;;;-3.05;74.95;95942.64;1749662;80;26421;-85
2020/12/12 02:18:19;;;;;;;136.00;58.60;;;;;;;-3.05;74.84;95942.64;1750139;80;25360;-87
2020/12/12 02:21:01;;;;;;;144.30;61.00;;;;;;;-3.02;74.94;95944.95;1749867;80;27563;-86
2020/12/12 02:23:29;;;;;;;143.35;59.40;;;;;;;-3.06;74.80;95940.49;1749881;80;26398;-86
2020/12/12 02:25:57;;;;;;;137.55;58.78;;;;;;;-3.05;74.83;95934.72;1750068;80;25792;-86
2020/12/12 02:28:27;;;;;;;121.30;53.85;;;;;;;-3.02;74.87;95941.00;1749282;80;26453;-87
2020/12/12 02:30:54;;;;;;;137.55;57.50;;;;;;;-3.03;74.85;95934.89;1749945;80;25739;-85
2020/12/12 02:33:21;;;;;;;132.05;55.92;;;;;;;-3.08;74.68;95933.22;1749498;80;27571;-86
2020/12/12 02:35:48;;;;;;;136.85;55.92;;;;;;;-3.10;74.72;95919.36;1749734;80;25811;-86
2020/12/12 02:38:16;;;;;;;133.87;56.83;;;;;;;-3.10;74.81;95923.81;1749897;80;25789;-89
2020/12/12 02:40:43;;;;;;;146.90;65.28;;;;;;;-3.12;74.86;95926.61;1750009;80;26310;-87
2020/12/12 02:43:13;;;;;;;154.30;68.37;;;;;;;-3.10;74.91;95921.17;1749978;80;26341;-86
2020/12/12 02:45:46;;;;;;;154.85;70.57;;;;;;;-3.10;74.86;95925.13;1749491;80;27548;-89
2020/12/12 02:48:14;;;;;;;151.55;67.95;;;;;;;-3.08;74.91;95924.48;1749764;80;26122;-85
2020/12/12 02:50:42;;;;;;;151.78;65.57;;;;;;;-3.08;74.91;95922.66;1749533;80;25931;-91
2020/12/12 02:53:09;;;;;;;159.10;66.02;;;;;;;-3.08;74.87;95916.56;1749296;80;25852;-85
2020/12/12 02:55:36;;;;;;;147.40;64.12;;;;;;;-3.10;74.86;95921.17;1749791;80;25934;-85
2020/12/12 02:58:04;;;;;;;143.60;63.60;;;;;;;-3.09;74.79;95911.77;1754204;80;27712;-89
2020/12/12 03:00:31;;;;;;;142.22;61.70;;;;;;;-3.06;74.83;95914.58;1749630;80;25844;-85
2020/12/12 03:02:59;;;;;;;145.90;62.05;;;;;;;-3.06;74.74;95922.50;1750022;80;26398;-85
2020/12/12 03:05:26;;;;;;;135.22;59.20;;;;;;;-3.09;74.66;95916.22;1753909;80;26534;-85
2020/12/12 03:07:54;;;;;;;139.07;58.30;;;;;;;-3.10;74.70;95921.17;1759191;79;25376;-84
2020/12/12 03:10:21;;;;;;;129.70;57.15;;;;;;;-3.11;74.76;95922.16;1763399;78;27537;-85
2020/12/12 03:12:48;;;;;;;129.57;55.33;;;;;;;-3.12;74.78;95917.86;1784966;79;25798;-84
2020/12/12 03:15:16;;;;;;;131.67;56.08;;;;;;;-3.11;74.72;95908.95;1777901;79;25742;-84
2020/12/12 03:17:43;;;;;;;113.25;50.43;;;;;;;-3.13;74.72;95906.48;1771304;79;25863;-85
2020/12/12 03:20:10;;;;;;;114.00;48.60;;;;;;;-3.10;74.76;95911.44;1759539;78;25933;-85
2020/12/12 03:22:38;;;;;;;107.37;47.23;;;;;;;-3.09;74.83;95906.98;1758819;78;28533;-86
2020/12/12 03:25:05;;;;;;;105.27;45.92;;;;;;;-3.08;74.80;95909.95;1758588;80;25755;-88
2020/12/12 03:27:32;;;;;;;108.55;46.02;;;;;;;-3.09;74.77;95909.63;1759290;79;25788;-85
2020/12/12 03:30:00;;;;;;;97.75;45.80;;;;;;;-3.06;74.81;95914.58;1768881;79;25510;-85
2020/12/12 03:32:27;;;;;;;95.30;43.83;;;;;;;-3.07;74.75;95909.80;1776096;79;26212;-85
2020/12/12 03:34:55;;;;;;;89.85;43.33;;;;;;;-3.13;74.46;95906.48;1766615;79;28549;-87
2020/12/12 03:37:22;;;;;;;101.30;45.10;;;;;;;-3.19;74.67;95905.00;1764235;79;25812;-85
2020/12/12 03:39:49;;;;;;;113.90;47.17;;;;;;;-3.14;74.84;95914.06;1770034;79;25679;-86
2020/12/12 03:42:17;;;;;;;100.27;45.83;;;;;;;-3.13;74.80;95910.44;1790780;79;25829;-85
2020/12/12 03:44:44;;;;;;;115.60;47.20;;;;;;;-3.06;74.79;95907.98;1778514;78;25795;-87
2020/12/12 03:47:11;;;;;;;102.55;47.73;;;;;;;-3.05;74.76;95903.04;1777955;79;27705;-88
2020/12/12 03:49:38;;;;;;;114.03;50.55;;;;;;;-3.09;74.71;95903.02;1761262;79;25771;-86
2020/12/12 03:52:06;;;;;;;119.72;53.87;;;;;;;-3.10;74.71;95898.73;1759308;80;25333;-87
2020/12/12 03:54:33;;;;;;;119.77;50.50;;;;;;;-3.11;74.77;95897.08;1781447;78;25790;-85
2020/12/12 03:57:01;;;;;;;118.47;53.87;;;;;;;-3.08;74.83;95890.16;1772336;79;25939;-88
2020/12/12 03:59:28;;;;;;;118.35;54.30;;;;;;;-3.06;74.87;95882.91;1790685;79;27556;-89
2020/12/12 04:01:55;;;;;;;125.62;53.65;;;;;;;-3.04;74.76;95891.49;1771757;80;25939;-85
2020/12/12 04:04:23;;;;;;;117.60;50.35;;;;;;;-3.07;74.66;95886.04;1771383;79;25823;-86
2020/12/12 04:06:50;;;;;;;115.47;51.10;;;;;;;-3.07;74.68;95889.17;1779759;79;25747;-85
2020/12/12 04:09:17;;;;;;;115.22;51.13;;;;;;;-3.06;74.79;95894.30;1780982;78;25431;-88
2020/12/12 04:11:44;;;;;;;117.37;52.13;;;;;;;-3.09;74.60;95889.33;1782352;78;27560;-87
2020/12/12 04:14:12;;;;;;;113.25;50.70;;;;;;;-3.10;74.66;95890.32;1780126;79;25436;-84
2020/12/12 04:16:39;;;;;;;109.95;48.25;;;;;;;-3.08;74.75;95883.56;1775705;79;26158;-90
2020/12/12 04:19:06;;;;;;;110.30;49.10;;;;;;;-3.06;74.74;95892.97;1774186;79;25822;-85
2020/12/12 04:21:34;;;;;;;105.47;45.05;;;;;;;-3.04;74.71;95886.21;1773040;79;25825;-85
2020/12/12 04:24:01;;;;;;;100.60;45.03;;;;;;;-3.07;74.60;95882.58;1775716;79;27559;-86
2020/12/12 04:26:29;;;;;;;106.95;46.75;;;;;;;-3.09;74.59;95889.33;1781514;79;26052;-87
2020/12/12 04:28:56;;;;;;;98.55;44.75;;;;;;;-3.12;74.57;95892.79;1765547;78;25368;-86
2020/12/12 04:31:24;;;;;;;108.10;46.42;;;;;;;-3.10;74.56;95888.17;1762698;79;25782;-85
2020/12/12 04:33:51;;;;;;;102.20;46.15;;;;;;;-3.08;74.51;95883.56;1762820;79;25918;-85
2020/12/12 04:36:18;;;;;;;107.70;47.05;;;;;;;-3.12;74.30;95890.15;1770903;79;28541;-85
2020/12/12 04:38:45;;;;;;;104.30;44.25;;;;;;;-3.27;74.13;95888.18;1768188;78;25762;-85
2020/12/12 04:41:13;;;;;;;102.50;47.53;;;;;;;-3.31;74.37;95888.16;1786052;79;25779;-86
2020/12/12 04:43:43;;;;;;;96.02;42.00;;;;;;;-3.28;74.48;95891.80;1773010;79;25725;-87
2020/12/12 04:46:13;;;;;;;100.10;43.83;;;;;;;-3.26;74.42;95891.12;1779605;78;26381;-87
2020/12/12 04:48:41;;;;;;;101.67;43.08;;;;;;;-3.30;74.39;95893.77;1769825;79;27616;-85
2020/12/12 04:51:08;;;;;;;98.22;41.53;;;;;;;-3.31;74.38;95887.34;1785027;79;25698;-84
2020/12/12 04:53:35;;;;;;;96.53;42.78;;;;;;;-3.32;74.31;95891.79;1762881;79;26012;-87
2020/12/12 04:56:05;;;;;;;89.62;39.73;;;;;;;-3.35;74.22;95893.42;1788625;79;25896;-86
2020/12/12 04:58:37;;;;;;;94.83;39.30;;;;;;;-3.46;74.07;95892.41;1771910;79;25411;-83
2020/12/12 05:01:04;;;;;;;87.57;40.05;;;;;;;-3.48;74.22;95894.38;1765857;79;27502;-86
2020/12/12 05:03:33;;;;;;;91.87;41.73;;;;;;;-3.52;74.05;95900.98;1781292;79;25756;-90
2020/12/12 05:06:01;;;;;;;87.88;38.78;;;;;;;-3.60;74.07;95906.22;1788442;79;25778;-84
2020/12/12 05:08:28;;;;;;;92.78;40.75;;;;;;;-3.58;74.27;95906.06;1765215;79;25743;-88
2020/12/12 05:10:55;;;;;;;95.42;41.02;;;;;;;-3.59;74.28;95907.87;1785314;79;25851;-87
2020/12/12 05:13:25;;;;;;;90.62;40.48;;;;;;;-3.61;74.27;95907.20;1776682;78;27562;-85
2020/12/12 05:15:55;;;;;;;90.53;40.52;;;;;;;-3.67;74.18;95898.63;1759562;79;26141;-91
2020/12/12 05:18:23;;;;;;;86.00;39.67;;;;;;;-3.73;74.21;95895.30;1760732;79;25672;-89
2020/12/12 05:20:51;;;;;;;89.15;38.63;;;;;;;-3.73;74.36;95895.30;1771751;78;25528;-86
2020/12/12 05:23:22;;;;;;;84.90;38.78;;;;;;;-3.71;74.34;95894.16;1760002;80;25966;-87
2020/12/12 05:25:52;;;;;;;110.57;45.65;;;;;;;-3.73;74.27;95894.81;1776287;80;27574;-84
2020/12/12 05:28:22;;;;;;;116.10;47.35;;;;;;;-3.70;74.39;95900.27;1759989;79;25838;-91
2020/12/12 05:30:52;;;;;;;112.32;45.90;;;;;;;-3.67;74.49;95899.95;1778685;79;25790;-86
2020/12/12 05:33:25;;;;;;;123.07;48.00;;;;;;;-3.64;74.52;95899.64;1778957;79;26735;-87
2020/12/12 05:35:53;;;;;;;118.35;46.30;;;;;;;-3.62;74.45;95901.59;1782181;78;25794;-84
2020/12/12 05:38:21;;;;;;;111.65;44.85;;;;;;;-3.62;74.35;95900.28;1784369;79;27506;-83
2020/12/12 05:40:55;;;;;;;101.07;43.13;;;;;;;-3.64;74.31;95902.27;1781731;79;25806;-84
2020/12/12 05:43:34;;;;;;;96.00;41.83;;;;;;;-3.65;74.25;95913.81;1792275;79;25268;-84
2020/12/12 05:46:01;;;;;;;95.35;39.05;;;;;;;-3.62;74.30;95908.19;1780055;78;25794;-84
2020/12/12 05:48:29;;;;;;;93.62;38.67;;;;;;;-3.70;73.88;95899.77;1768915;80;25847;-87
2020/12/12 05:50:57;;;;;;;104.50;41.90;;;;;;;-3.82;73.94;95905.50;1764974;79;27581;-88
2020/12/12 05:53:24;;;;;;;105.40;41.85;;;;;;;-3.84;73.99;95907.45;1778416;78;26122;-93
2020/12/12 05:55:55;;;;;;;92.45;37.85;;;;;;;-3.85;74.06;95908.44;1781825;79;25353;-94
2020/12/12 05:58:24;;;;;;;102.30;40.12;;;;;;;-3.85;74.04;95917.67;1760934;79;26461;-83
2020/12/12 06:00:52;;;;;;;104.00;42.08;;;;;;;-3.90;73.87;95916.02;1759727;80;25778;-83
2020/12/12 06:03:32;;;;;;;152.20;58.50;;;;;;;-4.08;73.75;95916.92;1767205;79;28985;-83
2020/12/12 06:06:06;;;;;;;230.60;80.17;;;;;;;-4.08;74.08;95910.81;1783380;79;26499;-85
2020/12/12 06:08:38;;;;;;;139.85;55.17;;;;;;;-4.04;74.20;95918.27;1790666;79;25833;-84
2020/12/12 06:11:08;;;;;;;149.42;56.33;;;;;;;-4.02;74.16;95916.30;1781234;79;25752;-84
2020/12/12 06:13:38;;;;;;;123.13;54.13;;;;;;;-4.03;74.07;95913.33;1764643;79;25349;-83
2020/12/12 06:16:08;;;;;;;170.32;60.73;;;;;;;-4.08;73.81;95915.59;1762535;79;28832;-84
2020/12/12 06:19:03;;;;;;;168.47;63.23;;;;;;;-4.18;73.88;95908.30;1765121;79;25818;-84
2020/12/12 06:21:30;;;;;;;160.10;61.05;;;;;;;-4.15;74.09;95915.91;1781222;79;25766;-87
2020/12/12 06:23:58;;;;;;;163.95;63.48;;;;;;;-4.19;73.97;95911.09;1768011;79;25807;-83
2020/12/12 06:26:51;;;;;;;179.45;68.33;;;;;;;-4.25;74.01;95905.98;1781170;79;25704;-84
2020/12/12 06:29:21;;;;;;;179.07;68.10;;;;;;;-4.25;74.09;95908.61;1718609;81;27509;-84
2020/12/12 06:31:50;;;;;;;186.57;76.77;;;;;;;-4.23;73.97;95912.41;1739169;81;26112;-84
2020/12/12 06:34:17;;;;;;;182.37;77.22;;;;;;;-4.27;74.02;95910.57;1706889;81;25734;-88
2020/12/12 06:36:47;;;;;;;189.95;78.45;;;;;;;-4.25;74.09;95904.66;1728459;81;25760;-83
2020/12/12 06:39:25;;;;;;;151.97;68.15;;;;;;;-4.24;74.09;95914.22;1738219;81;25441;-83
2020/12/12 06:41:57;;;;;;;126.72;50.90;;;;;;;-4.23;74.05;95909.28;1728082;81;27721;-82
2020/12/12 06:47:14;;;;;;;114.37;49.10;;;;;;;-4.14;74.09;95900.44;1871070;76;34931;-81
2020/12/12 06:49:42;;;;;;;134.45;56.35;;;;;;;-4.17;74.05;95894.16;1816007;77;26332;-82
2020/12/12 06:52:12;;;;;;;146.68;60.63;;;;;;;-4.16;74.10;95902.39;1852633;77;27479;-83
2020/12/12 06:54:39;;;;;;;135.55;54.63;;;;;;;-4.18;74.08;95900.41;1797390;77;25756;-82
2020/12/12 06:57:12;;;;;;;135.78;56.60;;;;;;;-4.22;74.10;95888.52;1852495;77;25523;-82
2020/12/12 06:59:39;;;;;;;126.45;51.28;;;;;;;-4.20;74.18;95893.14;1845352;77;26068;-82
2020/12/12 07:02:08;;;;;;;137.20;57.58;;;;;;;-4.16;74.19;95886.58;1820756;77;25824;-84
2020/12/12 07:04:38;;;;;;;134.70;57.40;;;;;;;-4.11;74.25;95897.48;1796402;77;27564;-82
2020/12/12 07:07:12;;;;;;;129.27;54.55;;;;;;;-4.15;74.15;95891.36;1796346;77;25695;-82
2020/12/12 07:09:41;;;;;;;129.32;54.50;;;;;;;-4.14;74.10;95899.11;1827869;77;25868;-86
2020/12/12 07:12:10;;;;;;;124.42;53.68;;;;;;;-4.24;73.79;95898.41;1823695;77;25718;-82
2020/12/12 07:14:38;;;;;;;122.07;53.58;;;;;;;-4.28;74.03;95895.74;1819117;77;26016;-83
2020/12/12 07:17:07;;;;;;;129.18;56.48;;;;;;;-4.28;74.14;95893.11;1822015;77;27673;-85
2020/12/12 07:19:40;;;;;;;133.12;57.40;;;;;;;-4.23;74.29;95893.48;1826198;77;25727;-83
2020/12/12 07:22:11;;;;;;;150.30;59.45;;;;;;;-4.18;74.31;95893.81;1797808;77;25910;-83
2020/12/12 07:24:42;;;;;;;138.00;55.95;;;;;;;-4.09;74.42;95894.67;1818826;77;25794;-85
2020/12/12 07:27:09;;;;;;;148.75;64.47;;;;;;;-4.02;74.43;95893.07;1818657;77;25662;-84
2020/12/12 07:29:36;;;;;;;166.18;72.08;;;;;;;-3.96;74.47;95895.55;1821949;77;27425;-84
2020/12/12 07:32:04;;;;;;;168.90;73.37;;;;;;;-3.91;74.48;95894.59;1829351;77;25901;-84
2020/12/12 07:34:32;;;;;;;228.30;83.82;;;;;;;-3.83;74.53;95895.44;1813123;77;25757;-85
2020/12/12 07:37:03;;;;;;;164.93;75.17;;;;;;;-3.84;74.38;95892.47;1833805;77;26027;-84
2020/12/12 07:39:37;;;;;;;159.78;71.80;;;;;;;-3.84;74.52;95892.95;1818845;77;26315;-83
2020/12/12 07:42:06;;;;;;;169.87;77.82;;;;;;;-3.77;74.60;95900.58;1818887;77;27432;-84
2020/12/12 07:44:34;;;;;;;169.32;76.85;;;;;;;-3.71;74.67;95890.70;1818647;77;25734;-83
2020/12/12 07:47:06;;;;;;;161.22;73.35;;;;;;;-3.71;74.66;95882.79;1801149;77;25785;-83
2020/12/12 07:49:35;;;;;;;177.80;79.77;;;;;;;-3.64;74.72;95890.41;1790736;79;25843;-84
2020/12/12 07:52:09;;;;;;;184.07;79.10;;;;;;;-3.52;74.83;95898.84;1777971;79;25823;-84
2020/12/12 07:54:45;;;;;;;172.35;77.80;;;;;;;-3.45;74.82;95898.02;1783508;79;28685;-85
2020/12/12 07:57:14;;;;;;;171.20;81.70;;;;;;;-3.41;74.88;95891.45;1796050;79;25780;-84
2020/12/12 07:59:44;;;;;;;177.65;82.35;;;;;;;-3.29;74.98;95898.06;1781110;78;25790;-86
2020/12/12 08:02:14;;;;;;;177.32;81.63;;;;;;;-3.23;74.98;95894.42;1791793;79;25904;-85
2020/12/12 08:04:41;;;;;;;186.75;86.80;;;;;;;-3.12;75.09;95891.47;1775896;79;25843;-85
2020/12/12 08:07:18;;;;;;;179.93;85.25;;;;;;;-3.02;75.13;95896.12;1795527;79;27497;-87
2020/12/12 08:09:53;;;;;;;188.95;85.00;;;;;;;-2.91;75.16;95889.19;1799108;78;25841;-88
2020/12/12 08:12:31;;;;;;;217.87;94.10;;;;;;;-2.80;75.05;95885.39;1788976;78;25787;-87
2020/12/12 08:15:16;;;;;;;281.68;113.85;;;;;;;-2.73;75.05;95889.83;1764315;79;25889;-87
2020/12/12 08:17:44;;;;;;;269.43;115.40;;;;;;;-2.59;75.07;95890.97;1787455;79;25807;-86
2020/12/12 08:20:24;;;;;;;297.55;122.70;;;;;;;-2.43;75.09;95895.42;1786577;78;27495;-86
2020/12/12 08:22:50;;;;;;;268.30;119.35;;;;;;;-2.29;75.09;95900.81;1776741;78;26111;-86
2020/12/12 08:25:19;;;;;;;233.13;104.58;;;;;;;-2.15;75.06;95894.02;1793730;78;25782;-87
2020/12/12 08:27:47;;;;;;;171.05;80.92;;;;;;;-2.01;75.07;95898.60;1768210;78;25897;-88
2020/12/12 08:30:14;;;;;;;159.05;77.30;;;;;;;-1.88;74.97;95900.70;1791988;78;25337;-87
2020/12/12 08:32:46;;;;;;;117.87;55.40;;;;;;;-1.75;74.94;95897.52;1795649;78;28357;-90
2020/12/12 08:35:26;;;;;;;148.90;65.47;;;;;;;-1.63;74.92;95893.49;1795715;78;26725;-90
2020/12/12 08:38:01;;;;;;;158.03;71.97;;;;;;;-1.59;74.63;95893.48;1795782;78;25755;-89
2020/12/12 08:40:33;;;;;;;160.30;74.07;;;;;;;-1.50;74.77;95885.33;1778848;78;25788;-90
2020/12/12 08:43:07;;;;;;;158.22;75.35;;;;;;;-1.28;74.95;95885.03;1781807;78;25839;-91
2020/12/12 08:45:41;;;;;;;139.15;67.45;;;;;;;-1.06;74.92;95890.50;1778929;77;27495;-88
2020/12/12 08:48:15;;;;;;;141.20;68.92;;;;;;;-0.88;74.91;95885.75;1825666;77;25743;-89
2020/12/12 08:50:48;;;;;;;144.62;69.60;;;;;;;-0.70;74.83;95882.27;1819336;77;25801;-87
2020/12/12 08:53:29;;;;;;;140.35;71.20;;;;;;;-0.53;74.74;95879.81;1820202;77;25829;-89
2020/12/12 08:56:15;;;;;;;143.52;72.45;;;;;;;-0.39;74.68;95884.83;1828573;77;25920;-88
2020/12/12 08:59:04;;;;;;;147.10;73.83;;;;;;;-0.22;74.50;95882.81;1825437;77;28490;-89
2020/12/12 09:01:42;;;;;;;131.47;67.78;;;;;;;-0.23;74.03;95875.86;1828630;77;25790;-89
2020/12/12 09:04:15;;;;;;;142.15;68.80;;;;;;;-0.30;73.88;95877.61;1818036;77;25765;-88
2020/12/12 09:06:54;;;;;;;125.45;63.70;;;;;;;-0.20;74.28;95878.16;1823192;77;25891;-88
2020/12/12 09:09:28;;;;;;;113.95;59.85;;;;;;;-0.07;74.47;95883.66;1833350;77;25771;-88
2020/12/12 09:12:07;;;;;;;117.62;60.58;;;;;;;0.04;74.26;95885.03;1841726;77;27457;-88
2020/12/12 09:14:39;;;;;;;128.57;67.75;;;;;;;0.16;74.32;95880.91;1837995;77;26111;-89
2020/12/12 09:17:09;;;;;;;181.30;88.20;;;;;;;0.37;74.28;95879.64;1827770;77;25788;-88
2020/12/12 09:19:38;;;;;;;203.88;99.03;;;;;;;0.47;74.09;95875.40;1851549;77;25729;-88
2020/12/12 09:22:11;;;;;;;185.63;98.03;;;;;;;0.51;73.99;95874.00;1824010;77;26032;-88
2020/12/12 09:24:40;;;;;;;171.37;89.45;;;;;;;0.56;73.71;95883.56;1820162;77;28886;-89
2020/12/12 09:27:09;;;;;;;162.40;84.30;;;;;;;0.61;73.72;95873.20;1817952;77;26097;-88
2020/12/12 09:29:36;;;;;;;145.35;78.10;;;;;;;0.73;73.97;95870.37;1826557;77;25794;-88
2020/12/12 09:32:04;;;;;;;155.93;82.55;;;;;;;0.86;73.80;95868.36;1851409;77;25287;-88
2020/12/12 09:34:31;;;;;;;173.70;86.75;;;;;;;0.92;73.74;95865.80;1825566;77;25860;-88
2020/12/12 09:36:58;;;;;;;164.25;85.07;;;;;;;1.00;73.69;95863.00;1828337;77;28648;-88
2020/12/12 09:39:26;;;;;;;159.80;84.30;;;;;;;1.13;73.69;95862.30;1818063;77;26173;-88
2020/12/12 09:41:58;;;;;;;178.10;87.65;;;;;;;1.25;73.56;95862.61;1818258;77;25742;-87
2020/12/12 09:44:27;;;;;;;152.75;75.28;;;;;;;1.32;73.41;95863.52;1832178;77;26333;-88
2020/12/12 09:46:54;;;;;;;163.65;82.30;;;;;;;1.44;73.34;95862.80;1805946;77;25794;-88
2020/12/12 09:49:22;;;;;;;108.52;56.58;;;;;;;1.55;73.20;95869.94;1802613;77;29019;-88
2020/12/12 09:51:49;;;;;;;114.47;58.87;;;;;;;1.66;73.11;95870.23;1809281;77;25730;-87
2020/12/12 09:54:17;;;;;;;109.22;54.88;;;;;;;1.78;72.87;95859.38;1829731;77;25818;-86
2020/12/12 09:56:50;;;;;;;124.15;61.45;;;;;;;1.78;72.58;95863.36;1830959;77;25663;-89
2020/12/12 09:59:17;;;;;;;112.52;56.90;;;;;;;1.98;72.99;95866.14;1803067;77;25793;-88
2020/12/12 10:01:45;;;;;;;110.28;60.28;;;;;;;2.36;72.91;95859.91;1828651;77;26653;-86
2020/12/12 10:04:13;;;;;;;104.30;55.15;;;;;;;2.63;72.95;95850.70;1826354;77;25472;-87
2020/12/12 10:06:43;;;;;;;161.37;80.32;;;;;;;2.70;72.56;95847.02;1813275;77;26254;-86
2020/12/12 10:09:11;;;;;;;113.68;61.63;;;;;;;2.98;72.42;95853.56;1825263;77;25731;-85
2020/12/12 10:11:38;;;;;;;96.37;52.88;;;;;;;3.18;72.11;95850.92;1801009;77;25699;-90
2020/12/12 10:14:06;;;;;;;92.85;49.45;;;;;;;3.37;72.30;95857.32;1822553;77;26872;-90
2020/12/12 10:16:33;;;;;;;90.15;50.23;;;;;;;3.60;71.83;95852.40;1834793;77;26024;-86
2020/12/12 10:19:01;;;;;;;93.10;49.20;;;;;;;3.81;71.56;95848.17;1794808;78;25894;-86
2020/12/12 10:21:29;;;;;;;92.62;51.13;;;;;;;4.11;71.37;95851.70;1799339;77;25708;-87
2020/12/12 10:23:56;;;;;;;86.65;49.95;;;;;;;4.42;71.37;95854.52;1834694;77;25950;-87
2020/12/12 10:26:24;;;;;;;90.62;51.20;;;;;;;4.75;70.98;95852.22;1820988;77;27477;-92
2020/12/12 10:28:52;;;;;;;82.70;49.40;;;;;;;5.15;70.62;95846.16;1822991;77;25314;-88
2020/12/12 10:31:19;;;;;;;93.33;53.68;;;;;;;5.31;69.81;95849.11;1842719;77;25718;-87
2020/12/12 10:33:47;;;;;;;105.63;60.25;;;;;;;5.51;69.48;95844.16;1818759;77;26359;-87
2020/12/12 10:36:15;;;;;;;113.12;63.65;;;;;;;5.74;69.36;95847.87;1815578;77;25769;-90
2020/12/12 10:38:43;;;;;;;135.28;74.55;;;;;;;5.91;68.54;95848.19;1806146;77;27487;-90
2020/12/12 10:41:12;;;;;;;134.70;74.77;;;;;;;5.98;68.46;95846.25;1832792;77;26251;-91
2020/12/12 10:43:40;;;;;;;109.80;61.75;;;;;;;6.12;68.20;95846.95;1830265;77;25657;-91
2020/12/12 10:46:08;;;;;;;59.85;36.48;;;;;;;6.30;67.92;95845.61;1819337;77;25737;-92
2020/12/12 10:48:36;;;;;;;77.17;43.65;;;;;;;6.44;67.90;95849.79;1813782;77;25828;-89
2020/12/12 10:51:04;;;;;;;67.72;39.63;;;;;;;6.75;67.55;95846.14;1821146;77;27619;-90
2020/12/12 10:53:31;;;;;;;64.15;35.90;;;;;;;6.95;67.07;95848.56;1803373;77;25989;-89
2020/12/12 10:55:59;;;;;;;44.27;27.32;;;;;;;7.14;66.60;95843.97;1821731;77;25755;-89
2020/12/12 10:58:27;;;;;;;48.78;29.50;;;;;;;7.29;66.28;95848.41;1811754;77;26434;-92
2020/12/12 11:00:55;;;;;;;42.05;25.77;;;;;;;7.34;65.96;95823.05;1808821;77;25763;-89
2020/12/12 11:03:22;;;;;;;38.28;23.40;;;;;;;7.62;65.65;95845.73;1808799;77;27468;-89
2020/12/12 11:05:50;;;;;;;44.13;22.82;;;;;;;7.75;65.15;95846.87;1850992;76;26216;-91
2020/12/12 11:08:18;;;;;;;51.08;24.92;;;;;;;7.85;64.57;95843.91;1827916;77;26644;-88
2020/12/12 11:10:46;;;;;;;59.33;27.80;;;;;;;7.75;64.05;95842.32;1845176;76;26386;-89
2020/12/12 11:13:13;;;;;;;50.38;26.57;;;;;;;7.82;64.29;95848.42;1758418;79;25437;-89
2020/12/12 11:15:42;;;;;;;48.13;25.97;;;;;;;8.02;64.33;95845.91;1842885;77;27486;-88
2020/12/12 11:18:11;;;;;;;43.17;25.08;;;;;;;8.18;63.98;95846.05;1851344;77;25714;-88
2020/12/12 11:20:38;;;;;;;46.15;27.42;;;;;;;8.35;63.73;95842.66;1847345;77;25771;-91
2020/12/12 11:23:06;;;;;;;64.07;34.27;;;;;;;8.48;62.98;95848.61;1834415;77;25713;-89